createdAt,value
2019-05-20T00:00:51.009Z,88.30
2019-05-20T00:03:20.824Z,88.20
2019-05-20T00:05:51.849Z,88.00
2019-05-20T00:08:21.737Z,87.80
2019-05-20T00:10:51.583Z,88.30
2019-05-20T00:13:22.500Z,88.10
2019-05-20T00:15:52.361Z,88.70
2019-05-20T00:18:23.176Z,89.00
2019-05-20T00:20:53.027Z,88.60
2019-05-20T00:23:22.875Z,88.80
2019-05-20T00:25:53.111Z,88.80
2019-05-20T00:28:23.023Z,88.50
2019-05-20T00:30:53.938Z,88.20
2019-05-20T00:33:25.129Z,87.60
2019-05-20T00:35:54.946Z,87.40
2019-05-20T00:38:24.794Z,87.40
2019-05-20T00:40:54.659Z,87.70
2019-05-20T00:43:24.540Z,87.80
2019-05-20T00:45:54.379Z,88.10
2019-05-20T00:48:24.217Z,88.30
2019-05-20T00:50:54.336Z,88.30
2019-05-20T00:53:24.192Z,88.10
2019-05-20T00:55:54.028Z,87.80
2019-05-20T00:58:23.861Z,87.90
2019-05-20T01:00:53.735Z,88.00
2019-05-20T01:03:23.584Z,88.00
2019-05-20T01:05:53.811Z,88.10
2019-05-20T01:08:23.670Z,88.30
2019-05-20T01:10:53.529Z,88.40
2019-05-20T01:13:23.371Z,88.50
2019-05-20T01:15:53.679Z,88.60
2019-05-20T01:18:23.518Z,88.70
2019-05-20T01:20:53.440Z,88.10
2019-05-20T01:23:23.282Z,88.30
2019-05-20T01:25:53.127Z,88.40
2019-05-20T01:28:23.046Z,88.30
2019-05-20T01:30:52.898Z,88.40
2019-05-20T01:33:22.744Z,88.60
2019-05-20T01:35:52.605Z,88.70
2019-05-20T01:38:22.463Z,88.70
2019-05-20T01:40:52.297Z,88.80
2019-05-20T01:43:22.178Z,89.00
2019-05-20T01:45:52.350Z,88.80
2019-05-20T01:48:22.221Z,88.60
2019-05-20T01:50:52.080Z,88.60
2019-05-20T01:53:21.947Z,88.70
2019-05-20T01:55:51.813Z,88.80
2019-05-20T01:58:22.446Z,88.60
2019-05-20T02:00:52.363Z,88.60
2019-05-20T02:03:31.866Z,89.00
2019-05-20T02:05:53.713Z,89.20
2019-05-20T02:08:23.559Z,89.30
2019-05-20T02:10:56.505Z,89.50
2019-05-20T02:13:27.157Z,89.50
2019-05-20T02:15:58.651Z,89.60
2019-05-20T02:18:30.131Z,89.60
2019-05-20T02:20:59.986Z,89.60
2019-05-20T02:23:29.841Z,89.30
2019-05-20T02:25:59.705Z,88.90
2019-05-20T02:28:29.557Z,88.90
2019-05-20T02:31:00.771Z,88.90
2019-05-20T02:33:47.844Z,89.20
2019-05-20T02:36:02.124Z,89.50
2019-05-20T02:38:31.975Z,89.70
2019-05-20T02:41:01.819Z,90.00
2019-05-20T02:43:31.684Z,90.10
2019-05-20T02:46:01.539Z,90.20
2019-05-20T02:48:31.390Z,90.20
2019-05-20T02:51:01.542Z,90.20
2019-05-20T02:53:32.355Z,90.20
2019-05-20T02:56:02.186Z,90.20
2019-05-20T02:58:32.060Z,90.20
2019-05-20T03:01:02.015Z,90.30
2019-05-20T03:03:31.854Z,90.20
2019-05-20T03:06:02.123Z,90.20
2019-05-20T03:08:31.986Z,90.20
2019-05-20T03:11:01.868Z,90.30
2019-05-20T03:13:31.696Z,90.30
2019-05-20T03:16:01.548Z,90.30
2019-05-20T03:18:31.405Z,90.30
2019-05-20T03:21:01.247Z,90.30
2019-05-20T03:23:31.145Z,90.30
2019-05-20T03:26:01.073Z,90.30
2019-05-20T03:28:30.902Z,90.40
2019-05-20T03:31:00.764Z,90.40
2019-05-20T03:33:30.613Z,90.40
2019-05-20T03:36:00.476Z,90.40
2019-05-20T03:38:30.317Z,90.40
2019-05-20T03:41:00.515Z,90.40
2019-05-20T03:43:30.377Z,90.40
2019-05-20T03:46:00.220Z,90.20
2019-05-20T03:48:30.086Z,90.20
2019-05-20T03:50:59.927Z,90.30
2019-05-20T03:53:29.782Z,90.30
2019-05-20T03:55:59.628Z,90.40
2019-05-20T03:58:29.596Z,90.40
2019-05-20T04:00:59.431Z,90.40
2019-05-20T04:03:29.283Z,90.40
2019-05-20T04:05:59.135Z,90.40
2019-05-20T04:08:28.975Z,90.30
2019-05-20T04:10:58.851Z,90.30
2019-05-20T04:13:29.101Z,90.30
2019-05-20T04:15:59.320Z,90.40
2019-05-20T04:18:29.168Z,90.40
2019-05-20T04:20:59.077Z,90.50
2019-05-20T04:23:28.992Z,90.50
2019-05-20T04:25:58.887Z,90.30
2019-05-20T04:28:28.780Z,90.10
2019-05-20T04:30:58.642Z,90.20
2019-05-20T04:33:28.482Z,90.10
2019-05-20T04:35:58.342Z,90.20
2019-05-20T04:38:28.188Z,90.30
2019-05-20T04:40:58.031Z,90.20
2019-05-20T04:43:27.876Z,90.30
2019-05-20T04:45:58.103Z,90.40
2019-05-20T04:48:27.969Z,90.30
2019-05-20T04:50:57.798Z,90.30
2019-05-20T04:53:27.665Z,90.40
2019-05-20T04:55:57.506Z,90.40
2019-05-20T04:58:27.377Z,90.30
2019-05-20T05:00:57.715Z,90.30
2019-05-20T05:03:27.568Z,90.50
2019-05-20T05:05:57.429Z,90.40
2019-05-20T05:08:27.267Z,90.50
2019-05-20T05:10:57.126Z,90.50
2019-05-20T05:13:26.964Z,90.40
2019-05-20T05:15:56.830Z,90.70
2019-05-20T05:18:26.666Z,90.50
2019-05-20T05:20:56.505Z,90.50
2019-05-20T05:23:26.729Z,91.10
2019-05-20T05:25:57.643Z,90.50
2019-05-20T05:28:27.859Z,90.70
2019-05-20T05:30:58.071Z,90.40
2019-05-20T05:33:28.194Z,90.40
2019-05-20T05:35:58.052Z,90.30
2019-05-20T05:38:27.981Z,90.30
2019-05-20T05:40:58.166Z,90.40
2019-05-20T05:43:28.002Z,90.50
2019-05-20T05:45:57.873Z,90.50
2019-05-20T05:48:27.709Z,90.60
2019-05-20T05:50:57.598Z,90.60
2019-05-20T05:53:27.452Z,90.70
2019-05-20T05:55:57.668Z,90.90
2019-05-20T05:58:27.513Z,90.50
2019-05-20T06:00:57.359Z,90.50
2019-05-20T06:03:27.249Z,90.30
2019-05-20T06:06:11.267Z,90.20
2019-05-20T06:08:28.578Z,90.40
2019-05-20T06:10:58.430Z,90.90
2019-05-20T06:13:28.297Z,90.40
2019-05-20T06:15:58.165Z,90.40
2019-05-20T06:18:28.083Z,90.40
2019-05-20T06:20:57.933Z,90.10
2019-05-20T06:23:27.798Z,90.10
2019-05-20T06:25:57.682Z,90.30
2019-05-20T06:28:28.605Z,90.00
2019-05-20T06:30:58.458Z,90.20
2019-05-20T06:33:28.747Z,90.60
2019-05-20T06:35:58.595Z,90.10
2019-05-20T06:38:36.974Z,90.00
2019-05-20T06:41:08.626Z,90.00
2019-05-20T06:43:38.690Z,89.30
2019-05-20T06:46:08.818Z,88.70
2019-05-20T06:48:38.761Z,89.10
2019-05-20T06:51:08.683Z,88.90
2019-05-20T06:53:38.834Z,90.00
2019-05-20T06:56:08.717Z,90.00
2019-05-20T06:58:38.634Z,90.10
2019-05-20T07:01:08.497Z,90.10
2019-05-20T07:03:38.373Z,90.10
2019-05-20T07:06:08.239Z,90.20
2019-05-20T07:08:38.113Z,90.00
2019-05-20T07:11:09.053Z,90.00
2019-05-20T07:13:38.903Z,89.60
2019-05-20T07:16:08.763Z,89.30
2019-05-20T07:18:38.625Z,89.40
2019-05-20T07:21:08.559Z,89.30
2019-05-20T07:23:38.474Z,89.50
2019-05-20T07:26:08.358Z,89.10
2019-05-20T07:28:38.232Z,89.80
2019-05-20T07:31:08.165Z,90.20
2019-05-20T07:33:38.056Z,90.20
2019-05-20T07:36:10.151Z,90.00
2019-05-20T07:38:39.380Z,90.10
2019-05-20T07:41:09.325Z,90.10
2019-05-20T07:43:39.197Z,90.10
2019-05-20T07:46:09.058Z,90.10
2019-05-20T07:48:39.080Z,90.20
2019-05-20T07:51:09.338Z,90.00
2019-05-20T07:53:39.317Z,89.70
2019-05-20T07:56:12.537Z,88.80
2019-05-20T07:58:44.809Z,88.00
2019-05-20T08:01:14.677Z,87.50
2019-05-20T08:03:44.543Z,87.30
2019-05-20T08:06:14.703Z,87.70
2019-05-20T08:08:44.560Z,87.70
2019-05-20T08:11:14.417Z,88.60
2019-05-20T08:13:44.302Z,88.50
2019-05-20T08:16:14.149Z,87.90
2019-05-20T08:18:44.022Z,87.40
2019-05-20T08:21:13.893Z,88.00
2019-05-20T08:23:43.744Z,86.50
2019-05-20T08:26:13.623Z,85.80
2019-05-20T08:28:43.500Z,85.10
2019-05-20T08:31:13.383Z,85.30
2019-05-20T08:33:43.231Z,84.90
2019-05-20T08:36:13.121Z,84.50
2019-05-20T08:38:42.985Z,84.60
2019-05-20T08:41:12.849Z,85.30
2019-05-20T08:43:42.713Z,84.10
2019-05-20T08:46:12.585Z,83.90
2019-05-20T08:48:42.472Z,84.00
2019-05-20T08:51:12.309Z,83.70
2019-05-20T08:53:42.326Z,83.30
2019-05-20T08:56:12.191Z,83.60
2019-05-20T08:58:42.044Z,83.60
2019-05-20T09:01:12.376Z,83.50
2019-05-20T09:03:43.552Z,83.40
2019-05-20T09:06:13.511Z,83.40
2019-05-20T09:08:43.367Z,83.00
2019-05-20T09:11:13.647Z,83.20
2019-05-20T09:13:43.546Z,82.60
2019-05-20T09:16:13.483Z,83.00
2019-05-20T09:18:45.023Z,83.00
2019-05-20T09:21:15.237Z,83.00
2019-05-20T09:23:45.297Z,83.00
2019-05-20T09:26:15.282Z,82.50
2019-05-20T09:28:45.143Z,82.80
2019-05-20T09:31:15.201Z,83.40
2019-05-20T09:33:45.162Z,83.40
2019-05-20T09:36:15.009Z,83.20
2019-05-20T09:38:44.965Z,83.50
2019-05-20T09:41:14.958Z,83.10
2019-05-20T09:43:44.969Z,83.60
2019-05-20T09:46:15.054Z,82.70
2019-05-20T09:48:45.001Z,82.70
2019-05-20T09:51:15.847Z,82.90
2019-05-20T09:53:45.767Z,83.20
2019-05-20T09:56:15.624Z,83.30
2019-05-20T09:58:45.487Z,82.10
2019-05-20T10:01:15.736Z,81.60
2019-05-20T10:03:45.646Z,82.70
2019-05-20T10:06:15.523Z,81.90
2019-05-20T10:08:45.529Z,81.50
2019-05-20T10:11:15.562Z,81.90
2019-05-20T10:13:45.501Z,81.70
2019-05-20T10:16:15.363Z,81.30
2019-05-20T10:18:45.289Z,81.20
2019-05-20T10:21:15.173Z,81.10
2019-05-20T10:23:45.370Z,81.10
2019-05-20T10:26:15.231Z,80.80
2019-05-20T10:28:47.283Z,80.80
2019-05-20T10:31:19.410Z,80.90
2019-05-20T10:33:49.274Z,81.60
2019-05-20T10:36:19.132Z,82.40
2019-05-20T10:38:58.524Z,82.90
2019-05-20T10:41:20.818Z,83.30
2019-05-20T10:43:50.683Z,83.50
2019-05-20T10:46:21.619Z,83.20
2019-05-20T10:48:51.474Z,83.60
2019-05-20T10:51:21.345Z,83.70
2019-05-20T10:53:51.211Z,83.20
2019-05-20T10:56:21.442Z,82.90
2019-05-20T10:58:51.320Z,83.00
2019-05-20T11:01:21.179Z,83.60
2019-05-20T11:03:52.678Z,84.00
2019-05-20T11:06:22.535Z,84.40
2019-05-20T11:08:52.400Z,84.40
2019-05-20T11:11:22.261Z,84.60
2019-05-20T11:13:52.480Z,84.70
2019-05-20T11:16:22.370Z,85.10
2019-05-20T11:18:52.205Z,85.30
2019-05-20T11:21:22.456Z,85.40
2019-05-20T11:23:52.337Z,85.30
2019-05-20T11:26:22.190Z,84.20
2019-05-20T11:28:52.066Z,84.30
2019-05-20T11:31:22.295Z,84.40
2019-05-20T11:33:52.149Z,84.00
2019-05-20T11:36:22.006Z,83.40
2019-05-20T11:38:51.939Z,82.90
2019-05-20T11:41:51.305Z,82.80
2019-05-20T11:43:53.442Z,82.70
2019-05-20T11:46:23.392Z,82.20
2019-05-20T11:48:53.283Z,81.70
2019-05-20T11:51:23.420Z,81.70
2019-05-20T11:53:53.300Z,81.50
2019-05-20T11:56:23.168Z,81.50
2019-05-20T11:58:53.033Z,81.30
2019-05-20T12:01:22.881Z,81.50
2019-05-20T12:03:52.745Z,80.70
2019-05-20T12:06:22.608Z,80.80
2019-05-20T12:08:53.547Z,81.20
2019-05-20T12:11:23.429Z,80.80
2019-05-20T12:13:53.290Z,81.20
2019-05-20T12:16:23.190Z,81.10
2019-05-20T12:18:53.053Z,80.80
2019-05-20T12:21:22.938Z,81.30
2019-05-20T12:23:52.786Z,81.70
2019-05-20T12:26:22.915Z,79.80
2019-05-20T12:28:52.796Z,76.00
2019-05-20T12:31:22.647Z,75.90
2019-05-20T12:33:52.506Z,74.70
2019-05-20T12:36:22.357Z,74.50
2019-05-20T12:38:53.313Z,75.00
2019-05-20T12:41:23.255Z,75.30
2019-05-20T12:44:10.208Z,76.00
2019-05-20T12:46:24.727Z,74.80
2019-05-20T12:48:54.638Z,74.90
2019-05-20T12:51:24.638Z,75.20
2019-05-20T12:53:54.487Z,75.70
2019-05-20T12:56:26.004Z,75.10
2019-05-20T12:58:55.876Z,73.60
2019-05-20T13:01:25.730Z,73.60
2019-05-20T13:03:55.575Z,71.50
2019-05-20T13:06:25.439Z,72.60
2019-05-20T13:08:55.290Z,73.10
2019-05-20T13:11:25.191Z,73.60
2019-05-20T13:13:55.147Z,71.60
2019-05-20T13:16:25.015Z,71.40
2019-05-20T13:18:56.280Z,72.30
2019-05-20T13:21:26.436Z,72.20
2019-05-20T13:23:57.383Z,72.20
2019-05-20T13:26:27.868Z,72.90
2019-05-20T13:28:59.662Z,72.20
2019-05-20T13:31:29.369Z,73.00
2019-05-20T13:33:59.213Z,72.70
2019-05-20T13:36:29.078Z,72.90
2019-05-20T13:38:59.329Z,72.80
2019-05-20T13:41:29.437Z,72.50
2019-05-20T13:43:59.306Z,72.30
2019-05-20T13:46:29.580Z,72.60
2019-05-20T13:48:59.497Z,73.20
2019-05-20T13:51:29.436Z,73.20
2019-05-20T13:53:59.374Z,73.60
2019-05-20T13:56:30.302Z,72.60
2019-05-20T13:59:00.229Z,72.50
2019-05-20T14:01:30.182Z,70.80
2019-05-20T14:04:00.011Z,70.80
2019-05-20T14:06:29.951Z,71.20
2019-05-20T14:08:59.781Z,71.20
2019-05-20T14:11:34.552Z,71.40
2019-05-20T14:14:01.384Z,71.10
2019-05-20T14:16:31.321Z,70.70
2019-05-20T14:19:01.530Z,70.80
2019-05-20T14:21:31.473Z,70.00
2019-05-20T14:24:01.399Z,70.40
2019-05-20T14:26:31.287Z,70.60
2019-05-20T14:29:01.156Z,70.50
2019-05-20T14:31:30.983Z,71.10
2019-05-20T14:34:00.829Z,70.20
2019-05-20T14:36:39.303Z,71.00
2019-05-20T14:39:02.178Z,70.70
2019-05-20T14:41:32.185Z,71.30
2019-05-20T14:44:02.060Z,71.00
2019-05-20T14:46:31.931Z,71.10
2019-05-20T14:49:02.753Z,71.10
2019-05-20T14:51:32.871Z,72.30
2019-05-20T14:54:02.814Z,72.90
2019-05-20T14:56:32.681Z,73.20
2019-05-20T14:59:02.937Z,72.90
2019-05-20T15:01:32.793Z,73.70
2019-05-20T15:04:02.636Z,72.90
2019-05-20T15:06:32.510Z,72.60
2019-05-20T15:09:02.407Z,71.80
2019-05-20T15:11:38.001Z,72.10
2019-05-20T15:14:04.812Z,72.40
2019-05-20T15:16:34.656Z,72.90
2019-05-20T15:19:04.820Z,73.10
2019-05-20T15:21:34.847Z,73.10
2019-05-20T15:24:06.112Z,72.90
2019-05-20T15:26:35.955Z,73.70
2019-05-20T15:29:06.280Z,73.40
2019-05-20T15:31:36.293Z,74.20
2019-05-20T15:34:06.204Z,73.80
2019-05-20T15:36:36.064Z,74.50
2019-05-20T15:39:07.747Z,74.50
2019-05-20T15:41:37.655Z,74.00
2019-05-20T15:44:07.517Z,74.90
2019-05-20T15:46:38.351Z,74.30
2019-05-20T15:49:08.181Z,74.80
2019-05-20T15:51:38.037Z,75.20
2019-05-20T15:54:07.879Z,75.80
2019-05-20T15:56:37.822Z,74.90
2019-05-20T15:59:07.763Z,74.80
2019-05-20T16:01:37.622Z,75.70
2019-05-20T16:04:07.474Z,75.20
2019-05-20T16:06:37.330Z,75.20
2019-05-20T16:09:07.238Z,76.70
2019-05-20T16:11:37.284Z,77.50
2019-05-20T16:14:07.156Z,76.80
2019-05-20T16:16:37.027Z,77.00
2019-05-20T16:19:06.893Z,76.10
2019-05-20T16:21:37.213Z,77.20
2019-05-20T16:24:07.168Z,77.00
2019-05-20T16:26:38.661Z,76.80
2019-05-20T16:29:08.532Z,77.50
2019-05-20T16:31:38.387Z,78.00
2019-05-20T16:34:08.308Z,78.60
2019-05-20T16:36:38.340Z,78.70
2019-05-20T16:39:08.189Z,79.30
2019-05-20T16:41:38.110Z,78.80
2019-05-20T16:44:08.475Z,78.90
2019-05-20T16:46:38.403Z,78.70
2019-05-20T16:49:08.323Z,78.80
2019-05-20T16:51:38.259Z,79.00
2019-05-20T16:54:08.189Z,79.30
2019-05-20T16:56:39.128Z,79.60
2019-05-20T16:59:08.972Z,78.80
2019-05-20T17:01:46.447Z,79.00
2019-05-20T17:04:10.760Z,78.00
2019-05-20T17:06:40.682Z,78.50
2019-05-20T17:09:10.750Z,78.90
2019-05-20T17:11:40.672Z,79.00
2019-05-20T17:14:10.915Z,79.20
2019-05-20T17:16:40.880Z,79.00
2019-05-20T17:19:10.737Z,79.10
2019-05-20T17:21:40.573Z,79.80
2019-05-20T17:24:10.813Z,79.10
2019-05-20T17:26:40.667Z,79.30
2019-05-20T17:29:10.519Z,79.70
2019-05-20T17:31:42.058Z,79.40
2019-05-20T17:34:13.001Z,79.80
2019-05-20T17:36:42.842Z,80.20
2019-05-20T17:39:12.721Z,80.00
2019-05-20T17:41:42.582Z,80.20
2019-05-20T17:44:12.474Z,80.50
2019-05-20T17:46:42.329Z,80.50
2019-05-20T17:49:12.507Z,79.10
2019-05-20T17:51:43.375Z,80.20
2019-05-20T17:54:13.516Z,80.40
2019-05-20T17:56:43.457Z,80.70
2019-05-20T17:59:13.269Z,80.90
2019-05-20T18:01:43.132Z,80.30
2019-05-20T18:04:12.979Z,79.10
2019-05-20T18:06:42.826Z,80.80
2019-05-20T18:09:12.798Z,81.30
2019-05-20T18:11:42.631Z,81.50
2019-05-20T18:14:12.885Z,81.40
2019-05-20T18:16:42.725Z,81.80
2019-05-20T18:19:12.585Z,80.90
2019-05-20T18:21:42.431Z,81.80
2019-05-20T18:24:14.021Z,81.90
2019-05-20T18:26:44.311Z,82.00
2019-05-20T18:29:14.155Z,82.00
2019-05-20T18:31:44.014Z,82.10
2019-05-20T18:34:13.887Z,81.80
2019-05-20T18:36:43.738Z,81.90
2019-05-20T18:39:13.582Z,81.60
2019-05-20T18:41:43.507Z,80.80
2019-05-20T18:44:13.507Z,80.70
2019-05-20T18:46:43.326Z,80.80
2019-05-20T18:49:13.182Z,80.70
2019-05-20T18:51:43.024Z,80.60
2019-05-20T18:54:12.875Z,80.60
2019-05-20T18:56:43.758Z,80.40
2019-05-20T18:59:13.673Z,80.10
2019-05-20T19:01:50.964Z,80.30
2019-05-20T19:04:15.068Z,81.30
2019-05-20T19:06:44.911Z,80.00
2019-05-20T19:09:15.177Z,80.60
2019-05-20T19:11:45.195Z,80.60
2019-05-20T19:14:16.338Z,80.50
2019-05-20T19:16:46.254Z,80.50
2019-05-20T19:19:16.682Z,80.40
2019-05-20T19:21:46.509Z,80.10
2019-05-20T19:24:16.410Z,80.20
2019-05-20T19:26:46.324Z,80.50
2019-05-20T19:29:16.183Z,80.60
2019-05-20T19:31:46.036Z,80.50
2019-05-20T19:34:16.070Z,80.90
2019-05-20T19:36:46.188Z,80.60
2019-05-20T19:39:16.204Z,80.50
2019-05-20T19:41:46.118Z,80.70
2019-05-20T19:44:16.136Z,80.50
2019-05-20T19:46:46.461Z,80.60
2019-05-20T19:49:16.478Z,80.70
2019-05-20T19:51:46.392Z,81.20
2019-05-20T19:54:16.410Z,81.30
2019-05-20T19:56:46.229Z,81.30
2019-05-20T19:59:16.138Z,81.60
2019-05-20T20:01:46.039Z,81.40
2019-05-20T20:04:15.964Z,81.50
2019-05-20T20:06:45.881Z,81.60
2019-05-20T20:09:15.795Z,82.10
2019-05-20T20:11:45.710Z,82.10
2019-05-20T20:14:15.539Z,82.00
2019-05-20T20:16:45.443Z,81.90
2019-05-20T20:19:15.354Z,81.80
2019-05-20T20:21:45.255Z,81.70
2019-05-20T20:24:15.387Z,81.70
2019-05-20T20:26:45.710Z,83.10
2019-05-20T20:29:15.627Z,82.20
2019-05-20T20:31:45.454Z,82.60
2019-05-20T20:34:15.312Z,83.20
2019-05-20T20:36:45.157Z,83.70
2019-05-20T20:39:15.007Z,83.80
2019-05-20T20:41:46.161Z,84.10
2019-05-20T20:44:16.022Z,84.40
2019-05-20T20:46:45.853Z,85.30
2019-05-20T20:49:16.830Z,85.30
2019-05-20T20:51:46.765Z,85.10
2019-05-20T20:54:16.617Z,85.90
2019-05-20T20:56:46.476Z,85.80
2019-05-20T20:59:16.387Z,86.00
2019-05-20T21:01:46.238Z,86.30
2019-05-20T21:04:16.083Z,86.30
2019-05-20T21:06:45.934Z,86.10
2019-05-20T21:09:15.791Z,86.60
2019-05-20T21:11:45.661Z,86.70
2019-05-20T21:14:15.588Z,86.70
2019-05-20T21:16:45.430Z,86.70
2019-05-20T21:19:15.297Z,86.60
2019-05-20T21:21:45.503Z,86.80
2019-05-20T21:24:15.337Z,86.90
2019-05-20T21:26:45.215Z,86.70
2019-05-20T21:29:15.062Z,86.30
2019-05-20T21:31:44.968Z,86.30
2019-05-20T21:34:14.804Z,86.30
2019-05-20T21:36:47.626Z,86.30
2019-05-20T21:39:16.143Z,86.40
2019-05-20T21:41:46.011Z,86.60
2019-05-20T21:44:15.846Z,86.50
2019-05-20T21:46:45.703Z,86.40
2019-05-20T21:49:15.560Z,86.60
2019-05-20T21:51:45.437Z,86.60
2019-05-20T21:54:15.285Z,87.00
2019-05-20T21:56:45.121Z,86.40
2019-05-20T21:59:14.979Z,86.10
2019-05-20T22:01:44.837Z,86.00
2019-05-20T22:04:14.687Z,86.20
2019-05-20T22:06:44.549Z,85.90
2019-05-20T22:09:14.402Z,86.10
2019-05-20T22:11:44.575Z,86.00
2019-05-20T22:14:14.438Z,85.90
2019-05-20T22:16:44.859Z,86.10
2019-05-20T22:19:14.712Z,86.50
2019-05-20T22:21:46.267Z,86.40
2019-05-20T22:24:16.669Z,86.20
2019-05-20T22:26:46.523Z,86.80
2019-05-20T22:29:16.383Z,87.30
2019-05-20T22:31:46.599Z,86.60
2019-05-20T22:34:16.447Z,87.20
2019-05-20T22:36:46.290Z,86.60
2019-05-20T22:39:16.138Z,87.20
2019-05-20T22:41:45.990Z,87.50
2019-05-20T22:44:15.833Z,86.80
2019-05-20T22:46:45.679Z,86.60
2019-05-20T22:49:15.523Z,87.20
2019-05-20T22:51:45.370Z,87.20
2019-05-20T22:54:16.532Z,87.40
2019-05-20T22:56:46.423Z,87.90
2019-05-20T22:59:16.274Z,87.90
2019-05-20T23:01:46.115Z,88.20
2019-05-20T23:04:15.976Z,87.50
2019-05-20T23:06:45.814Z,87.20
2019-05-20T23:09:15.746Z,87.80
2019-05-20T23:11:45.598Z,88.00
2019-05-20T23:14:15.476Z,87.50
2019-05-20T23:16:45.333Z,87.90
2019-05-20T23:19:15.186Z,88.30
2019-05-20T23:21:46.535Z,88.00
2019-05-20T23:24:16.382Z,87.60
2019-05-20T23:26:46.234Z,88.20
2019-05-20T23:29:16.102Z,88.10
2019-05-20T23:31:46.050Z,88.50
2019-05-20T23:34:15.980Z,88.10
2019-05-20T23:36:45.832Z,88.20
2019-05-20T23:39:15.691Z,87.40
2019-05-20T23:41:45.535Z,87.90
2019-05-20T23:44:15.396Z,87.70
2019-05-20T23:46:45.233Z,87.40
2019-05-20T23:49:15.090Z,86.90
2019-05-20T23:51:44.951Z,86.50
2019-05-20T23:54:14.798Z,86.50
2019-05-20T23:56:44.639Z,86.90
2019-05-20T23:59:14.495Z,87.60
